sensor_id;sensor_type;location;lat;lon;timestamp;temperature;humidity
67893;DHT22;54688;52.376;16.744;2022-07-15T00:02:42;13.7;54.4
67893;DHT22;54688;52.376;16.744;2022-07-15T00:05:44;13.7;54.8
67893;DHT22;54688;52.376;16.744;2022-07-15T00:08:46;13.7;54.9
67893;DHT22;54688;52.376;16.744;2022-07-15T00:11:48;13.7;55
67893;DHT22;54688;52.376;16.744;2022-07-15T00:14:49;13.7;55.2
67893;DHT22;54688;52.376;16.744;2022-07-15T00:17:51;13.7;55.3
67893;DHT22;54688;52.376;16.744;2022-07-15T00:20:55;13.8;55.6
67893;DHT22;54688;52.376;16.744;2022-07-15T00:23:56;13.8;55.8
67893;DHT22;54688;52.376;16.744;2022-07-15T00:26:58;13.8;56
67893;DHT22;54688;52.376;16.744;2022-07-15T00:30:00;13.8;56.2
67893;DHT22;54688;52.376;16.744;2022-07-15T00:33:02;13.8;56.6
67893;DHT22;54688;52.376;16.744;2022-07-15T00:36:05;13.8;56.8
67893;DHT22;54688;52.376;16.744;2022-07-15T00:39:08;13.8;57.1
67893;DHT22;54688;52.376;16.744;2022-07-15T00:42:11;13.8;57.3
67893;DHT22;54688;52.376;16.744;2022-07-15T00:45:14;13.7;57.5
67893;DHT22;54688;52.376;16.744;2022-07-15T00:48:18;13.8;57.6
67893;DHT22;54688;52.376;16.744;2022-07-15T00:51:20;13.8;57.6
67893;DHT22;54688;52.376;16.744;2022-07-15T00:54:24;13.9;57.8
67893;DHT22;54688;52.376;16.744;2022-07-15T00:57:27;13.8;57.8
67893;DHT22;54688;52.376;16.744;2022-07-15T01:00:30;13.8;57.8
67893;DHT22;54688;52.376;16.744;2022-07-15T01:03:34;13.9;57.8
67893;DHT22;54688;52.376;16.744;2022-07-15T01:06:37;13.9;57.6
67893;DHT22;54688;52.376;16.744;2022-07-15T01:09:40;13.9;57.6
67893;DHT22;54688;52.376;16.744;2022-07-15T01:12:42;13.9;57.5
67893;DHT22;54688;52.376;16.744;2022-07-15T01:15:47;13.9;57.2
67893;DHT22;54688;52.376;16.744;2022-07-15T01:18:49;13.9;57.2
67893;DHT22;54688;52.376;16.744;2022-07-15T01:21:51;13.8;57.2
67893;DHT22;54688;52.376;16.744;2022-07-15T01:24:53;13.9;57.3
67893;DHT22;54688;52.376;16.744;2022-07-15T01:27:55;13.8;58.1
67893;DHT22;54688;52.376;16.744;2022-07-15T01:30:58;13.8;57.6
67893;DHT22;54688;52.376;16.744;2022-07-15T01:34:00;13.7;57.8
67893;DHT22;54688;52.376;16.744;2022-07-15T01:37:02;13.7;58.2
67893;DHT22;54688;52.376;16.744;2022-07-15T01:40:05;13.6;58.5
67893;DHT22;54688;52.376;16.744;2022-07-15T01:43:08;13.6;58.8
67893;DHT22;54688;52.376;16.744;2022-07-15T01:46:10;13.6;59
67893;DHT22;54688;52.376;16.744;2022-07-15T01:49:12;13.5;59.3
67893;DHT22;54688;52.376;16.744;2022-07-15T01:52:14;13.5;59.5
67893;DHT22;54688;52.376;16.744;2022-07-15T01:55:17;13.5;60.3
67893;DHT22;54688;52.376;16.744;2022-07-15T01:58:20;13.4;59.7
67893;DHT22;54688;52.376;16.744;2022-07-15T02:01:23;13.4;59.8
67893;DHT22;54688;52.376;16.744;2022-07-15T02:04:26;13.3;60
67893;DHT22;54688;52.376;16.744;2022-07-15T02:07:28;13.2;60.5
67893;DHT22;54688;52.376;16.744;2022-07-15T02:10:31;13.2;60.4
67893;DHT22;54688;52.376;16.744;2022-07-15T02:13:34;13.1;60.7
67893;DHT22;54688;52.376;16.744;2022-07-15T02:16:35;13;61
67893;DHT22;54688;52.376;16.744;2022-07-15T02:19:37;13;61.5
67893;DHT22;54688;52.376;16.744;2022-07-15T02:22:40;12.8;62.6
67893;DHT22;54688;52.376;16.744;2022-07-15T02:25:42;12.8;62.1
67893;DHT22;54688;52.376;16.744;2022-07-15T02:28:44;12.6;62.6
67893;DHT22;54688;52.376;16.744;2022-07-15T02:31:47;12.6;63
67893;DHT22;54688;52.376;16.744;2022-07-15T02:34:49;12.5;63.4
67893;DHT22;54688;52.376;16.744;2022-07-15T02:37:51;12.4;63.6
67893;DHT22;54688;52.376;16.744;2022-07-15T02:40:54;12.3;63.9
67893;DHT22;54688;52.376;16.744;2022-07-15T02:43:56;12.2;64
67893;DHT22;54688;52.376;16.744;2022-07-15T02:46:58;12.2;64.3
67893;DHT22;54688;52.376;16.744;2022-07-15T02:50:00;12.1;65.4
67893;DHT22;54688;52.376;16.744;2022-07-15T02:53:02;12;64.8
67893;DHT22;54688;52.376;16.744;2022-07-15T02:56:05;11.9;65
67893;DHT22;54688;52.376;16.744;2022-07-15T02:59:08;11.9;65.5
67893;DHT22;54688;52.376;16.744;2022-07-15T03:02:10;11.8;65.7
67893;DHT22;54688;52.376;16.744;2022-07-15T03:05:13;11.7;65.9
67893;DHT22;54688;52.376;16.744;2022-07-15T03:08:15;11.7;66.2
67893;DHT22;54688;52.376;16.744;2022-07-15T03:11:18;11.6;66.3
67893;DHT22;54688;52.376;16.744;2022-07-15T03:14:20;11.6;66.5
67893;DHT22;54688;52.376;16.744;2022-07-15T03:17:21;11.6;66.7
67893;DHT22;54688;52.376;16.744;2022-07-15T03:20:24;11.5;66.7
67893;DHT22;54688;52.376;16.744;2022-07-15T03:23:27;11.5;66.9
67893;DHT22;54688;52.376;16.744;2022-07-15T03:26:28;11.5;67.1
67893;DHT22;54688;52.376;16.744;2022-07-15T03:29:30;11.4;67.1
67893;DHT22;54688;52.376;16.744;2022-07-15T03:32:32;11.4;67.2
67893;DHT22;54688;52.376;16.744;2022-07-15T03:35:35;11.5;66.4
67893;DHT22;54688;52.376;16.744;2022-07-15T03:38:36;11.4;67.3
67893;DHT22;54688;52.376;16.744;2022-07-15T03:41:38;11.4;67.5
67893;DHT22;54688;52.376;16.744;2022-07-15T03:44:41;11.4;67.5
67893;DHT22;54688;52.376;16.744;2022-07-15T03:47:43;11.4;68.4
67893;DHT22;54688;52.376;16.744;2022-07-15T03:50:45;11.4;68.2
67893;DHT22;54688;52.376;16.744;2022-07-15T03:53:47;11.4;66.8
67893;DHT22;54688;52.376;16.744;2022-07-15T03:56:49;11.4;67.9
67893;DHT22;54688;52.376;16.744;2022-07-15T03:59:51;11.4;67.3
67893;DHT22;54688;52.376;16.744;2022-07-15T04:02:53;11.5;67.4
67893;DHT22;54688;52.376;16.744;2022-07-15T04:05:57;11.5;67.3
67893;DHT22;54688;52.376;16.744;2022-07-15T04:09:00;11.4;67.3
67893;DHT22;54688;52.376;16.744;2022-07-15T04:12:03;11.5;67.4
67893;DHT22;54688;52.376;16.744;2022-07-15T04:15:05;11.5;67.3
67893;DHT22;54688;52.376;16.744;2022-07-15T04:18:08;11.5;67.3
67893;DHT22;54688;52.376;16.744;2022-07-15T04:24:09;11.5;67.1
67893;DHT22;54688;52.376;16.744;2022-07-15T04:27:12;11.6;66.9
67893;DHT22;54688;52.376;16.744;2022-07-15T04:30:14;11.6;66.6
67893;DHT22;54688;52.376;16.744;2022-07-15T04:33:16;11.7;66.7
67893;DHT22;54688;52.376;16.744;2022-07-15T04:36:19;11.7;66.3
67893;DHT22;54688;52.376;16.744;2022-07-15T04:39:22;11.7;66
67893;DHT22;54688;52.376;16.744;2022-07-15T04:42:24;11.8;66
67893;DHT22;54688;52.376;16.744;2022-07-15T04:45:27;11.9;66
67893;DHT22;54688;52.376;16.744;2022-07-15T04:51:29;12;64.4
67893;DHT22;54688;52.376;16.744;2022-07-15T04:54:32;12;65.2
67893;DHT22;54688;52.376;16.744;2022-07-15T04:57:34;12.1;64
67893;DHT22;54688;52.376;16.744;2022-07-15T05:00:37;12.1;64.1
67893;DHT22;54688;52.376;16.744;2022-07-15T05:03:39;12.2;64.7
67893;DHT22;54688;52.376;16.744;2022-07-15T05:06:42;12.2;64.3
67893;DHT22;54688;52.376;16.744;2022-07-15T05:09:45;12.2;63.7
67893;DHT22;54688;52.376;16.744;2022-07-15T05:12:48;12.3;63.4
67893;DHT22;54688;52.376;16.744;2022-07-15T05:15:50;12.4;62.9
67893;DHT22;54688;52.376;16.744;2022-07-15T05:18:52;12.4;63.5
67893;DHT22;54688;52.376;16.744;2022-07-15T05:21:55;12.5;63.1
67893;DHT22;54688;52.376;16.744;2022-07-15T05:24:57;12.6;62.1
67893;DHT22;54688;52.376;16.744;2022-07-15T05:28:00;12.6;62.7
67893;DHT22;54688;52.376;16.744;2022-07-15T05:34:01;12.7;62.1
67893;DHT22;54688;52.376;16.744;2022-07-15T05:37:03;12.8;61.6
67893;DHT22;54688;52.376;16.744;2022-07-15T05:40:06;12.8;61.5
67893;DHT22;54688;52.376;16.744;2022-07-15T05:43:10;12.9;61.8
67893;DHT22;54688;52.376;16.744;2022-07-15T05:46:13;12.9;61.5
67893;DHT22;54688;52.376;16.744;2022-07-15T05:49:16;12.9;60.7
67893;DHT22;54688;52.376;16.744;2022-07-15T05:52:18;13;61
67893;DHT22;54688;52.376;16.744;2022-07-15T05:55:21;13;60.9
67893;DHT22;54688;52.376;16.744;2022-07-15T05:58:23;13.1;60.6
67893;DHT22;54688;52.376;16.744;2022-07-15T06:01:26;13.2;60.7
67893;DHT22;54688;52.376;16.744;2022-07-15T06:04:28;13.2;60.2
67893;DHT22;54688;52.376;16.744;2022-07-15T06:07:32;13.3;59.7
67893;DHT22;54688;52.376;16.744;2022-07-15T06:10:35;13.4;59
67893;DHT22;54688;52.376;16.744;2022-07-15T06:13:37;13.5;59.6
67893;DHT22;54688;52.376;16.744;2022-07-15T06:16:40;13.6;58.7
67893;DHT22;54688;52.376;16.744;2022-07-15T06:19:42;13.7;58.4
67893;DHT22;54688;52.376;16.744;2022-07-15T06:22:45;13.8;58.6
67893;DHT22;54688;52.376;16.744;2022-07-15T06:25:47;13.9;57.6
67893;DHT22;54688;52.376;16.744;2022-07-15T06:28:49;14;57.7
67893;DHT22;54688;52.376;16.744;2022-07-15T06:31:52;14;57.6
67893;DHT22;54688;52.376;16.744;2022-07-15T06:34:55;14;57.3
67893;DHT22;54688;52.376;16.744;2022-07-15T06:37:57;14;57.4
67893;DHT22;54688;52.376;16.744;2022-07-15T06:41:00;14.1;57.4
67893;DHT22;54688;52.376;16.744;2022-07-15T06:44:03;14.1;56.6
67893;DHT22;54688;52.376;16.744;2022-07-15T06:47:05;14.2;56.7
67893;DHT22;54688;52.376;16.744;2022-07-15T06:50:08;14.2;56.3
67893;DHT22;54688;52.376;16.744;2022-07-15T06:53:10;14.2;56.4
67893;DHT22;54688;52.376;16.744;2022-07-15T06:56:13;14.3;55.7
67893;DHT22;54688;52.376;16.744;2022-07-15T06:59:15;14.5;55.5
67893;DHT22;54688;52.376;16.744;2022-07-15T07:02:18;14.6;53.9
67893;DHT22;54688;52.376;16.744;2022-07-15T07:05:20;14.8;53.1
67893;DHT22;54688;52.376;16.744;2022-07-15T07:08:24;14.8;52.5
67893;DHT22;54688;52.376;16.744;2022-07-15T07:11:26;15;52.5
67893;DHT22;54688;52.376;16.744;2022-07-15T07:14:29;15.1;51.3
67893;DHT22;54688;52.376;16.744;2022-07-15T07:17:31;15.2;52.6
67893;DHT22;54688;52.376;16.744;2022-07-15T07:20:33;15.2;51.8
67893;DHT22;54688;52.376;16.744;2022-07-15T07:23:37;15.2;50.7
67893;DHT22;54688;52.376;16.744;2022-07-15T07:26:40;15.3;50.4
67893;DHT22;54688;52.376;16.744;2022-07-15T07:29:43;15.4;50
67893;DHT22;54688;52.376;16.744;2022-07-15T07:32:45;15.4;50.7
67893;DHT22;54688;52.376;16.744;2022-07-15T07:35:48;15.4;49.7
67893;DHT22;54688;52.376;16.744;2022-07-15T07:38:50;15.4;50.1
67893;DHT22;54688;52.376;16.744;2022-07-15T07:41:53;15.4;48.5
67893;DHT22;54688;52.376;16.744;2022-07-15T07:44:55;15.3;46.7
67893;DHT22;54688;52.376;16.744;2022-07-15T07:47:58;15.3;47.2
67893;DHT22;54688;52.376;16.744;2022-07-15T07:51:00;15.4;47.5
67893;DHT22;54688;52.376;16.744;2022-07-15T07:54:03;15.5;46.7
67893;DHT22;54688;52.376;16.744;2022-07-15T07:57:05;15.6;46.9
67893;DHT22;54688;52.376;16.744;2022-07-15T08:00:09;15.8;45.9
67893;DHT22;54688;52.376;16.744;2022-07-15T08:03:11;15.8;45.1
67893;DHT22;54688;52.376;16.744;2022-07-15T08:06:14;15.9;45.2
67893;DHT22;54688;52.376;16.744;2022-07-15T08:09:18;15.9;45.5
67893;DHT22;54688;52.376;16.744;2022-07-15T08:12:20;15.9;46.2
67893;DHT22;54688;52.376;16.744;2022-07-15T08:15:23;15.8;45.8
67893;DHT22;54688;52.376;16.744;2022-07-15T08:18:25;15.7;46.2
67893;DHT22;54688;52.376;16.744;2022-07-15T08:21:58;15.7;46.3
67893;DHT22;54688;52.376;16.744;2022-07-15T08:25:00;15.7;46.2
67893;DHT22;54688;52.376;16.744;2022-07-15T08:28:03;15.9;45.4
67893;DHT22;54688;52.376;16.744;2022-07-15T08:31:06;16.1;44.7
67893;DHT22;54688;52.376;16.744;2022-07-15T08:34:08;16.2;44.6
67893;DHT22;54688;52.376;16.744;2022-07-15T08:37:11;16.3;44.7
67893;DHT22;54688;52.376;16.744;2022-07-15T08:40:14;16.4;43.1
67893;DHT22;54688;52.376;16.744;2022-07-15T08:43:17;16.5;43
67893;DHT22;54688;52.376;16.744;2022-07-15T08:46:19;16.5;43.4
67893;DHT22;54688;52.376;16.744;2022-07-15T08:49:25;16.5;44.2
67893;DHT22;54688;52.376;16.744;2022-07-15T08:52:31;16.7;43.9
67893;DHT22;54688;52.376;16.744;2022-07-15T08:55:35;16.7;42.8
67893;DHT22;54688;52.376;16.744;2022-07-15T08:58:38;16.8;42.8
67893;DHT22;54688;52.376;16.744;2022-07-15T09:01:42;16.9;43
67893;DHT22;54688;52.376;16.744;2022-07-15T09:05:49;17;43.6
67893;DHT22;54688;52.376;16.744;2022-07-15T09:08:51;17.2;42.7
67893;DHT22;54688;52.376;16.744;2022-07-15T09:11:55;17.3;42.4
67893;DHT22;54688;52.376;16.744;2022-07-15T09:14:59;17.2;41.8
67893;DHT22;54688;52.376;16.744;2022-07-15T09:18:04;17;41.4
67893;DHT22;54688;52.376;16.744;2022-07-15T09:21:13;16.8;42.3
67893;DHT22;54688;52.376;16.744;2022-07-15T09:24:17;16.8;42.8
67893;DHT22;54688;52.376;16.744;2022-07-15T09:27:28;16.7;43.8
67893;DHT22;54688;52.376;16.744;2022-07-15T09:30:32;16.8;43.2
67893;DHT22;54688;52.376;16.744;2022-07-15T09:33:36;16.8;42.9
67893;DHT22;54688;52.376;16.744;2022-07-15T09:36:40;16.9;43
67893;DHT22;54688;52.376;16.744;2022-07-15T09:39:52;17;43.3
67893;DHT22;54688;52.376;16.744;2022-07-15T09:43:03;17.1;42.2
67893;DHT22;54688;52.376;16.744;2022-07-15T09:46:06;17.2;42.1
67893;DHT22;54688;52.376;16.744;2022-07-15T09:49:09;17.2;41
67893;DHT22;54688;52.376;16.744;2022-07-15T09:52:12;17.3;41.2
67893;DHT22;54688;52.376;16.744;2022-07-15T09:55:15;17.3;41.7
67893;DHT22;54688;52.376;16.744;2022-07-15T09:58:18;17.3;41.2
67893;DHT22;54688;52.376;16.744;2022-07-15T10:01:21;17.4;41.1
67893;DHT22;54688;52.376;16.744;2022-07-15T10:04:24;17.5;41.1
67893;DHT22;54688;52.376;16.744;2022-07-15T10:07:28;17.5;40.5
67893;DHT22;54688;52.376;16.744;2022-07-15T10:10:30;17.7;40.6
67893;DHT22;54688;52.376;16.744;2022-07-15T10:13:44;17.7;40.1
67893;DHT22;54688;52.376;16.744;2022-07-15T10:18:01;17.9;40.1
67893;DHT22;54688;52.376;16.744;2022-07-15T10:21:17;18.1;39.3
67893;DHT22;54688;52.376;16.744;2022-07-15T10:24:32;18.1;39.1
67893;DHT22;54688;52.376;16.744;2022-07-15T10:27:46;17.9;38.9
67893;DHT22;54688;52.376;16.744;2022-07-15T10:31:26;17.9;37.1
67893;DHT22;54688;52.376;16.744;2022-07-15T10:34:31;17.9;36.8
67893;DHT22;54688;52.376;16.744;2022-07-15T10:37:34;18;37.9
67893;DHT22;54688;52.376;16.744;2022-07-15T10:41:06;18.1;38.4
67893;DHT22;54688;52.376;16.744;2022-07-15T10:44:10;18.1;36.7
67893;DHT22;54688;52.376;16.744;2022-07-15T10:47:16;18;37.4
67893;DHT22;54688;52.376;16.744;2022-07-15T10:50:34;18;38.8
67893;DHT22;54688;52.376;16.744;2022-07-15T10:53:42;17.9;39.2
67893;DHT22;54688;52.376;16.744;2022-07-15T10:56:45;17.9;38.8
67893;DHT22;54688;52.376;16.744;2022-07-15T10:59:51;18;39.1
67893;DHT22;54688;52.376;16.744;2022-07-15T11:03:02;18.3;38.1
67893;DHT22;54688;52.376;16.744;2022-07-15T11:09:06;18.6;36.1
67893;DHT22;54688;52.376;16.744;2022-07-15T11:12:09;18.6;35.7
67893;DHT22;54688;52.376;16.744;2022-07-15T11:15:13;18.6;37.1
67893;DHT22;54688;52.376;16.744;2022-07-15T11:18:16;18.7;36.2
67893;DHT22;54688;52.376;16.744;2022-07-15T11:21:19;18.7;36.3
67893;DHT22;54688;52.376;16.744;2022-07-15T11:24:21;18.7;35.4
67893;DHT22;54688;52.376;16.744;2022-07-15T11:27:25;18.8;35.6
67893;DHT22;54688;52.376;16.744;2022-07-15T11:30:28;18.8;35.8
67893;DHT22;54688;52.376;16.744;2022-07-15T11:33:32;18.8;37.3
67893;DHT22;54688;52.376;16.744;2022-07-15T11:36:35;18.8;35.1
67893;DHT22;54688;52.376;16.744;2022-07-15T11:39:37;18.8;35.6
67893;DHT22;54688;52.376;16.744;2022-07-15T11:42:40;18.9;36.3
67893;DHT22;54688;52.376;16.744;2022-07-15T11:45:42;19;35.2
67893;DHT22;54688;52.376;16.744;2022-07-15T11:48:45;19.2;34.7
67893;DHT22;54688;52.376;16.744;2022-07-15T11:51:47;19.4;34.2
67893;DHT22;54688;52.376;16.744;2022-07-15T11:54:50;19.5;34.4
67893;DHT22;54688;52.376;16.744;2022-07-15T11:57:52;19.4;33.9
67893;DHT22;54688;52.376;16.744;2022-07-15T12:00:55;19.3;33.5
67893;DHT22;54688;52.376;16.744;2022-07-15T12:03:57;19.4;34.8
67893;DHT22;54688;52.376;16.744;2022-07-15T12:07:00;19.3;34.9
67893;DHT22;54688;52.376;16.744;2022-07-15T12:10:03;19.3;34.7
67893;DHT22;54688;52.376;16.744;2022-07-15T12:13:06;19.1;34.7
67893;DHT22;54688;52.376;16.744;2022-07-15T12:16:09;19;34.9
67893;DHT22;54688;52.376;16.744;2022-07-15T12:19:13;18.9;34.6
67893;DHT22;54688;52.376;16.744;2022-07-15T12:22:17;19;33.9
67893;DHT22;54688;52.376;16.744;2022-07-15T12:25:19;19.1;33.7
67893;DHT22;54688;52.376;16.744;2022-07-15T12:28:29;19.3;34.4
67893;DHT22;54688;52.376;16.744;2022-07-15T12:31:32;19.5;32.8
67893;DHT22;54688;52.376;16.744;2022-07-15T12:34:51;19.5;32.3
67893;DHT22;54688;52.376;16.744;2022-07-15T12:37:54;19.5;32.4
67893;DHT22;54688;52.376;16.744;2022-07-15T12:41:03;19.6;32.5
67893;DHT22;54688;52.376;16.744;2022-07-15T12:44:07;19.9;32.4
67893;DHT22;54688;52.376;16.744;2022-07-15T12:47:10;20.2;31
67893;DHT22;54688;52.376;16.744;2022-07-15T12:50:12;20.4;31.3
67893;DHT22;54688;52.376;16.744;2022-07-15T12:53:15;20.6;31
67893;DHT22;54688;52.376;16.744;2022-07-15T12:56:18;20.6;30.3
67893;DHT22;54688;52.376;16.744;2022-07-15T12:59:21;20.7;30
67893;DHT22;54688;52.376;16.744;2022-07-15T13:02:23;20.9;29.8
67893;DHT22;54688;52.376;16.744;2022-07-15T13:05:27;21.1;28.9
67893;DHT22;54688;52.376;16.744;2022-07-15T13:08:31;21.1;28.9
67893;DHT22;54688;52.376;16.744;2022-07-15T13:11:35;21;29.3
67893;DHT22;54688;52.376;16.744;2022-07-15T13:14:38;20.8;29
67893;DHT22;54688;52.376;16.744;2022-07-15T13:17:43;20.6;29.9
67893;DHT22;54688;52.376;16.744;2022-07-15T13:20:45;20.6;29.9
67893;DHT22;54688;52.376;16.744;2022-07-15T13:23:48;20.5;29.7
67893;DHT22;54688;52.376;16.744;2022-07-15T13:26:51;20.5;30.4
67893;DHT22;54688;52.376;16.744;2022-07-15T13:29:53;20.5;30.7
67893;DHT22;54688;52.376;16.744;2022-07-15T13:32:56;20.5;29.7
67893;DHT22;54688;52.376;16.744;2022-07-15T13:35:58;20.4;30.1
67893;DHT22;54688;52.376;16.744;2022-07-15T13:39:00;20.3;29.9
67893;DHT22;54688;52.376;16.744;2022-07-15T13:42:03;20.3;29.9
67893;DHT22;54688;52.376;16.744;2022-07-15T13:45:06;20.3;30.2
67893;DHT22;54688;52.376;16.744;2022-07-15T13:48:11;20.4;30.8
67893;DHT22;54688;52.376;16.744;2022-07-15T13:51:13;20.5;29.8
67893;DHT22;54688;52.376;16.744;2022-07-15T13:54:15;20.5;30.1
67893;DHT22;54688;52.376;16.744;2022-07-15T13:57:18;20.5;30.4
67893;DHT22;54688;52.376;16.744;2022-07-15T14:00:21;20.5;30.6
67893;DHT22;54688;52.376;16.744;2022-07-15T14:03:25;20.5;30.3
67893;DHT22;54688;52.376;16.744;2022-07-15T14:06:27;20.6;30.3
67893;DHT22;54688;52.376;16.744;2022-07-15T14:09:29;20.8;28.1
67893;DHT22;54688;52.376;16.744;2022-07-15T14:12:32;20.8;28.7
67893;DHT22;54688;52.376;16.744;2022-07-15T14:15:34;20.9;29.4
67893;DHT22;54688;52.376;16.744;2022-07-15T14:18:38;20.9;29.4
67893;DHT22;54688;52.376;16.744;2022-07-15T14:21:40;21.1;29.9
67893;DHT22;54688;52.376;16.744;2022-07-15T14:24:43;21.4;29.2
67893;DHT22;54688;52.376;16.744;2022-07-15T14:27:45;21.8;29
67893;DHT22;54688;52.376;16.744;2022-07-15T14:30:48;22.1;28.5
67893;DHT22;54688;52.376;16.744;2022-07-15T14:33:50;22.4;28.2
67893;DHT22;54688;52.376;16.744;2022-07-15T14:36:52;22.3;27.8
67893;DHT22;54688;52.376;16.744;2022-07-15T14:39:55;22.1;28
67893;DHT22;54688;52.376;16.744;2022-07-15T14:42:57;21.9;28.5
67893;DHT22;54688;52.376;16.744;2022-07-15T14:46:00;21.7;28.5
67893;DHT22;54688;52.376;16.744;2022-07-15T14:49:02;21.5;28.8
67893;DHT22;54688;52.376;16.744;2022-07-15T14:52:05;21.3;28.9
67893;DHT22;54688;52.376;16.744;2022-07-15T14:55:07;21.3;29.5
67893;DHT22;54688;52.376;16.744;2022-07-15T14:58:09;21.7;29.1
67893;DHT22;54688;52.376;16.744;2022-07-15T15:01:12;22;28.2
67893;DHT22;54688;52.376;16.744;2022-07-15T15:04:15;22.1;28.3
67893;DHT22;54688;52.376;16.744;2022-07-15T15:07:17;22.2;28.2
67893;DHT22;54688;52.376;16.744;2022-07-15T15:10:19;22.2;28.1
67893;DHT22;54688;52.376;16.744;2022-07-15T15:13:22;22.3;26.8
67893;DHT22;54688;52.376;16.744;2022-07-15T15:16:24;22.3;26.9
67893;DHT22;54688;52.376;16.744;2022-07-15T15:19:28;22.4;26.7
67893;DHT22;54688;52.376;16.744;2022-07-15T15:22:30;22.6;27
67893;DHT22;54688;52.376;16.744;2022-07-15T15:25:32;22.7;26.5
67893;DHT22;54688;52.376;16.744;2022-07-15T15:28:35;22.5;26.7
67893;DHT22;54688;52.376;16.744;2022-07-15T15:31:37;22.4;27.7
67893;DHT22;54688;52.376;16.744;2022-07-15T15:34:40;22.4;27.8
67893;DHT22;54688;52.376;16.744;2022-07-15T15:37:42;22.3;27
67893;DHT22;54688;52.376;16.744;2022-07-15T15:40:45;22.2;27.7
67893;DHT22;54688;52.376;16.744;2022-07-15T15:43:47;22;27.6
67893;DHT22;54688;52.376;16.744;2022-07-15T15:46:49;21.7;28.1
67893;DHT22;54688;52.376;16.744;2022-07-15T15:49:52;21.3;28.2
67893;DHT22;54688;52.376;16.744;2022-07-15T15:52:54;21.1;28.5
67893;DHT22;54688;52.376;16.744;2022-07-15T15:55:57;20.9;28.2
67893;DHT22;54688;52.376;16.744;2022-07-15T15:58:59;21.2;29
67893;DHT22;54688;52.376;16.744;2022-07-15T16:02:02;21.7;28.9
67893;DHT22;54688;52.376;16.744;2022-07-15T16:05:04;22.4;27.6
67893;DHT22;54688;52.376;16.744;2022-07-15T16:08:07;23;27.3
67893;DHT22;54688;52.376;16.744;2022-07-15T16:11:10;23.3;26.2
67893;DHT22;54688;52.376;16.744;2022-07-15T16:14:13;23.7;25.7
67893;DHT22;54688;52.376;16.744;2022-07-15T16:17:15;23.9;26
67893;DHT22;54688;52.376;16.744;2022-07-15T16:20:18;24;25.4
67893;DHT22;54688;52.376;16.744;2022-07-15T16:23:21;23.8;25.8
67893;DHT22;54688;52.376;16.744;2022-07-15T16:26:23;23.7;25.7
67893;DHT22;54688;52.376;16.744;2022-07-15T16:29:25;23.3;25.9
67893;DHT22;54688;52.376;16.744;2022-07-15T16:32:28;22.8;26.5
67893;DHT22;54688;52.376;16.744;2022-07-15T16:35:30;22.4;27.3
67893;DHT22;54688;52.376;16.744;2022-07-15T16:38:33;22.2;28
67893;DHT22;54688;52.376;16.744;2022-07-15T16:41:36;22.1;27.7
67893;DHT22;54688;52.376;16.744;2022-07-15T16:44:38;22;27.9
67893;DHT22;54688;52.376;16.744;2022-07-15T16:47:41;22.2;27.6
67893;DHT22;54688;52.376;16.744;2022-07-15T16:50:43;22.3;27.8
67893;DHT22;54688;52.376;16.744;2022-07-15T16:53:45;22.1;27.6
67893;DHT22;54688;52.376;16.744;2022-07-15T16:56:48;21.9;27.9
67893;DHT22;54688;52.376;16.744;2022-07-15T16:59:51;21.6;28.2
67893;DHT22;54688;52.376;16.744;2022-07-15T17:02:53;21.3;28.7
67893;DHT22;54688;52.376;16.744;2022-07-15T17:05:55;21.2;28.8
67893;DHT22;54688;52.376;16.744;2022-07-15T17:08:58;21.1;28.8
67893;DHT22;54688;52.376;16.744;2022-07-15T17:12:01;21;29.1
67893;DHT22;54688;52.376;16.744;2022-07-15T17:15:04;20.9;29.5
67893;DHT22;54688;52.376;16.744;2022-07-15T17:18:07;21;29.1
67893;DHT22;54688;52.376;16.744;2022-07-15T17:21:11;21.3;28.9
67893;DHT22;54688;52.376;16.744;2022-07-15T17:24:13;21.5;28.9
67893;DHT22;54688;52.376;16.744;2022-07-15T17:27:16;21.5;27.9
67893;DHT22;54688;52.376;16.744;2022-07-15T17:30:19;21.4;28.7
67893;DHT22;54688;52.376;16.744;2022-07-15T17:33:21;21.1;28.8
67893;DHT22;54688;52.376;16.744;2022-07-15T17:36:23;20.9;29.3
67893;DHT22;54688;52.376;16.744;2022-07-15T17:39:26;20.6;30.6
67893;DHT22;54688;52.376;16.744;2022-07-15T17:42:28;20.4;30.5
67893;DHT22;54688;52.376;16.744;2022-07-15T17:48:31;19.9;30.4
67893;DHT22;54688;52.376;16.744;2022-07-15T17:51:33;19.7;30.9
67893;DHT22;54688;52.376;16.744;2022-07-15T17:54:36;19.6;30.4
67893;DHT22;54688;52.376;16.744;2022-07-15T17:57:38;19.4;31.7
67893;DHT22;54688;52.376;16.744;2022-07-15T18:00:41;19.3;32
67893;DHT22;54688;52.376;16.744;2022-07-15T18:03:43;19.2;33
67893;DHT22;54688;52.376;16.744;2022-07-15T18:06:46;19.2;32.1
67893;DHT22;54688;52.376;16.744;2022-07-15T18:09:47;19.1;32.4
67893;DHT22;54688;52.376;16.744;2022-07-15T18:12:50;19;32.4
67893;DHT22;54688;52.376;16.744;2022-07-15T18:15:52;18.9;32.6
67893;DHT22;54688;52.376;16.744;2022-07-15T18:18:54;18.9;32.9
67893;DHT22;54688;52.376;16.744;2022-07-15T18:21:58;18.8;33.3
67893;DHT22;54688;52.376;16.744;2022-07-15T18:25:00;18.8;33.1
67893;DHT22;54688;52.376;16.744;2022-07-15T18:28:03;18.8;33.4
67893;DHT22;54688;52.376;16.744;2022-07-15T18:31:05;18.7;33.7
67893;DHT22;54688;52.376;16.744;2022-07-15T18:34:08;18.6;33.9
67893;DHT22;54688;52.376;16.744;2022-07-15T18:37:10;18.5;33.2
67893;DHT22;54688;52.376;16.744;2022-07-15T18:40:13;18.5;34.2
67893;DHT22;54688;52.376;16.744;2022-07-15T18:43:15;18.4;34.7
67893;DHT22;54688;52.376;16.744;2022-07-15T18:46:18;18.3;34.5
67893;DHT22;54688;52.376;16.744;2022-07-15T18:49:20;18.2;34.6
67893;DHT22;54688;52.376;16.744;2022-07-15T18:52:23;18.1;34.9
67893;DHT22;54688;52.376;16.744;2022-07-15T18:55:24;18.1;35.1
67893;DHT22;54688;52.376;16.744;2022-07-15T18:58:27;17.9;35.3
67893;DHT22;54688;52.376;16.744;2022-07-15T19:01:30;17.8;35
67893;DHT22;54688;52.376;16.744;2022-07-15T19:04:32;17.7;36
67893;DHT22;54688;52.376;16.744;2022-07-15T19:07:35;17.5;36.3
67893;DHT22;54688;52.376;16.744;2022-07-15T19:10:38;17.4;36.6
67893;DHT22;54688;52.376;16.744;2022-07-15T19:13:40;17.3;36.9
67893;DHT22;54688;52.376;16.744;2022-07-15T19:16:43;17.2;37.2
67893;DHT22;54688;52.376;16.744;2022-07-15T19:19:46;17.1;37.5
67893;DHT22;54688;52.376;16.744;2022-07-15T19:22:49;17;37.8
67893;DHT22;54688;52.376;16.744;2022-07-15T19:25:52;16.9;38
67893;DHT22;54688;52.376;16.744;2022-07-15T19:28:54;16.9;38.6
67893;DHT22;54688;52.376;16.744;2022-07-15T19:31:56;16.8;38.8
67893;DHT22;54688;52.376;16.744;2022-07-15T19:34:59;16.7;39.2
67893;DHT22;54688;52.376;16.744;2022-07-15T19:38:01;16.5;39.1
67893;DHT22;54688;52.376;16.744;2022-07-15T19:41:04;16.5;39.8
67893;DHT22;54688;52.376;16.744;2022-07-15T19:44:06;16.4;40.1
67893;DHT22;54688;52.376;16.744;2022-07-15T19:47:09;16.3;40.3
67893;DHT22;54688;52.376;16.744;2022-07-15T19:50:11;16.2;40.6
67893;DHT22;54688;52.376;16.744;2022-07-15T19:53:14;16.1;41.5
67893;DHT22;54688;52.376;16.744;2022-07-15T19:56:16;16;41.3
67893;DHT22;54688;52.376;16.744;2022-07-15T19:59:19;15.9;41.5
67893;DHT22;54688;52.376;16.744;2022-07-15T20:02:22;15.8;41.8